Time;durP1;ratioP1;P1;durP2;ratioP2;P2;SDS_P1;SDS_P2;PMS_P1;PMS_P2;Temp;Humidity;BMP_temperature;BMP_pressure;BME280_temperature;BME280_humidity;BME280_pressure;Samples;Min_cycle;Max_cycle;Signal;HPM_P1;HPM_P2
2022/11/06 00:01:16;;;;;;;14.50;5.73;;;6.90;99.90;;;;;;5244786;28;21015;-53
2022/11/06 00:03:46;;;;;;;9.43;5.00;;;7.00;99.90;;;;;;5236802;28;20212;-53
2022/11/06 00:09:09;;;;;;;20.53;7.10;;;7.00;99.90;;;;;;5241929;28;20256;-52
2022/11/06 00:11:41;;;;;;;10.10;5.53;;;6.90;99.90;;;;;;5241042;28;20463;-54
2022/11/06 00:14:11;;;;;;;34.20;14.00;;;7.10;99.90;;;;;;5242311;28;20433;-54
2022/11/06 00:16:43;;;;;;;15.07;7.90;;;6.80;99.90;;;;;;5237535;28;20585;-53
2022/11/06 00:19:14;;;;;;;20.83;7.67;;;6.80;99.90;;;;;;5247871;28;20206;-53
2022/11/06 00:21:45;;;;;;;26.03;11.87;;;6.70;99.90;;;;;;5245781;28;21005;-52
2022/11/06 00:24:15;;;;;;;11.30;7.07;;;6.60;99.90;;;;;;5248286;28;20524;-52
2022/11/06 00:26:46;;;;;;;14.43;7.20;;;6.50;99.90;;;;;;5241277;28;20174;-53
2022/11/06 00:29:16;;;;;;;13.90;6.70;;;6.60;99.90;;;;;;5240452;28;20748;-52
2022/11/06 00:31:48;;;;;;;12.37;6.27;;;6.60;99.90;;;;;;5248034;28;20233;-51
2022/11/06 00:34:19;;;;;;;9.27;6.97;;;6.50;99.90;;;;;;5246837;28;20642;-53
2022/11/06 00:36:49;;;;;;;13.53;6.30;;;6.40;99.90;;;;;;5242407;28;20413;-51
2022/11/06 00:39:20;;;;;;;12.30;5.90;;;6.30;99.90;;;;;;5239287;28;20285;-52
2022/11/06 00:41:51;;;;;;;13.90;6.00;;;6.20;99.90;;;;;;5248559;28;20186;-53
2022/11/06 00:44:21;;;;;;;12.43;6.80;;;6.20;99.90;;;;;;5246675;28;20186;-52
2022/11/06 00:46:52;;;;;;;18.30;7.10;;;6.00;99.90;;;;;;5244628;28;20190;-53
2022/11/06 00:49:22;;;;;;;13.03;8.10;;;6.40;99.90;;;;;;5248381;28;20209;-54
2022/11/06 00:51:53;;;;;;;15.10;7.80;;;6.40;99.90;;;;;;5246520;28;20319;-54
2022/11/06 00:54:23;;;;;;;7.93;6.50;;;6.40;99.90;;;;;;5246299;28;20658;-52
2022/11/06 00:56:54;;;;;;;18.90;7.30;;;6.50;99.90;;;;;;5243731;28;20189;-54
2022/11/06 00:59:24;;;;;;;19.43;6.53;;;6.20;99.90;;;;;;5242879;28;20195;-52
2022/11/06 01:01:55;;;;;;;32.50;11.70;;;6.20;99.90;;;;;;5242793;28;20209;-52
2022/11/06 01:04:26;;;;;;;12.70;6.70;;;6.10;99.90;;;;;;5245811;28;20343;-54
2022/11/06 01:06:56;;;;;;;12.97;6.67;;;6.30;99.90;;;;;;5246376;28;20190;-54
2022/11/06 01:09:27;;;;;;;7.10;6.20;;;6.20;99.90;;;;;;5246649;28;20745;-53
2022/11/06 01:11:59;;;;;;;22.80;9.20;;;6.10;99.90;;;;;;5239478;28;20232;-52
2022/11/06 01:14:29;;;;;;;17.43;7.93;;;6.10;99.90;;;;;;5242965;28;20436;-52
2022/11/06 01:17:00;;;;;;;13.83;5.87;;;6.20;99.90;;;;;;5244505;28;20456;-54
2022/11/06 01:19:31;;;;;;;21.30;7.87;;;6.20;99.90;;;;;;5244884;28;20204;-53
2022/11/06 01:22:02;;;;;;;17.20;7.60;;;6.40;99.90;;;;;;5241823;28;20194;-53
2022/11/06 01:24:33;;;;;;;9.00;6.17;;;6.50;99.90;;;;;;5236663;28;20210;-52
2022/11/06 01:27:04;;;;;;;11.30;7.10;;;6.30;99.90;;;;;;5246741;28;20261;-52
2022/11/06 01:29:34;;;;;;;15.20;6.90;;;6.40;99.90;;;;;;5245241;28;20472;-52
2022/11/06 01:32:05;;;;;;;8.97;5.90;;;6.30;99.90;;;;;;5245919;28;20986;-52
2022/11/06 01:34:36;;;;;;;11.53;5.60;;;6.10;99.90;;;;;;5239791;28;20183;-52
2022/11/06 01:37:06;;;;;;;10.00;6.30;;;6.40;99.90;;;;;;5241290;28;20182;-50
2022/11/06 01:39:37;;;;;;;7.90;5.20;;;6.40;99.90;;;;;;5232580;28;20565;-51
2022/11/06 01:42:11;;;;;;;19.80;6.63;;;6.20;99.90;;;;;;5242317;28;20646;-52
2022/11/06 01:44:41;;;;;;;10.93;6.70;;;6.10;99.90;;;;;;5246639;28;20272;-52
2022/11/06 01:47:24;;;;;;;14.90;6.53;;;6.00;99.90;;;;;;5246191;28;20524;-52
2022/11/06 01:49:58;;;;;;;11.60;6.30;;;6.10;99.90;;;;;;5235466;28;20226;-52
2022/11/06 01:52:32;;;;;;;14.90;6.30;;;6.20;99.90;;;;;;5247229;28;20428;-52
2022/11/06 01:55:13;;;;;;;13.67;7.33;;;6.50;99.90;;;;;;5243325;28;20435;-53
2022/11/06 01:57:45;;;;;;;8.00;5.83;;;6.50;99.90;;;;;;5246596;28;20497;-53
2022/11/06 02:00:16;;;;;;;9.30;5.60;;;6.40;99.90;;;;;;5246256;28;20526;-52
2022/11/06 02:02:48;;;;;;;12.20;5.33;;;6.30;99.90;;;;;;5236696;28;20489;-51
2022/11/06 02:05:19;;;;;;;8.53;5.90;;;6.30;99.90;;;;;;5242106;28;20469;-53
2022/11/06 02:07:51;;;;;;;11.20;6.73;;;6.30;99.90;;;;;;5240362;28;20441;-52
2022/11/06 02:10:21;;;;;;;11.13;5.60;;;6.50;99.90;;;;;;5237226;28;20210;-51
2022/11/06 02:13:21;;;;;;;14.80;6.10;;;6.50;99.90;;;;;;5245387;28;20501;-52
2022/11/06 02:16:08;;;;;;;10.20;6.27;;;6.50;99.90;;;;;;5244812;28;20192;-52
2022/11/06 02:18:44;;;;;;;8.23;5.50;;;6.30;99.90;;;;;;5246029;28;20435;-51
2022/11/06 02:21:37;;;;;;;7.87;5.97;;;6.20;99.90;;;;;;5243366;28;20447;-52
2022/11/06 02:24:18;;;;;;;9.10;6.07;;;6.10;99.90;;;;;;5246123;28;20440;-54
2022/11/06 02:27:10;;;;;;;10.60;5.40;;;6.10;99.90;;;;;;5243328;28;20440;-52
2022/11/06 02:29:53;;;;;;;15.03;6.97;;;6.10;99.90;;;;;;5243606;28;20448;-52
2022/11/06 02:32:49;;;;;;;10.57;6.00;;;6.10;99.90;;;;;;5239568;28;20467;-52
2022/11/06 02:35:46;;;;;;;11.77;7.20;;;6.10;99.90;;;;;;5244209;28;20431;-51
2022/11/06 02:38:24;;;;;;;9.00;5.70;;;6.00;99.90;;;;;;5238532;28;20503;-53
2022/11/06 02:40:58;;;;;;;9.83;6.90;;;5.90;99.90;;;;;;5242971;28;20432;-52
2022/11/06 02:43:35;;;;;;;12.37;7.20;;;6.10;99.90;;;;;;5247790;28;20427;-53
2022/11/06 02:46:14;;;;;;;11.30;7.03;;;6.10;99.90;;;;;;5238432;28;20523;-53
2022/11/06 02:48:49;;;;;;;9.37;6.10;;;6.10;99.90;;;;;;5237081;28;20452;-53
2022/11/06 02:51:24;;;;;;;11.30;6.67;;;6.00;99.90;;;;;;5233851;28;20978;-53
2022/11/06 02:53:59;;;;;;;11.20;6.47;;;6.10;99.90;;;;;;5245384;28;20429;-52
2022/11/06 02:56:36;;;;;;;20.90;7.73;;;6.20;99.90;;;;;;5243661;28;20523;-53
2022/11/06 02:59:33;;;;;;;11.43;6.40;;;6.30;99.90;;;;;;5243568;28;20449;-52
2022/11/06 03:02:07;;;;;;;9.87;6.17;;;6.20;99.90;;;;;;5232777;28;20527;-52
2022/11/06 03:05:01;;;;;;;11.67;6.07;;;6.30;99.90;;;;;;5247223;28;20448;-51
2022/11/06 03:07:46;;;;;;;11.73;6.63;;;6.30;99.90;;;;;;5241410;28;20432;-52
2022/11/06 03:10:18;;;;;;;11.53;7.33;;;6.20;99.90;;;;;;5235651;28;20562;-52
2022/11/06 03:13:10;;;;;;;17.13;7.07;;;6.30;99.90;;;;;;5247022;28;20497;-54
2022/11/06 03:15:47;;;;;;;13.27;7.00;;;6.40;99.90;;;;;;5243605;28;20459;-51
2022/11/06 03:18:41;;;;;;;15.43;7.30;;;6.20;99.90;;;;;;5240957;28;20528;-52
2022/11/06 03:21:20;;;;;;;11.63;7.07;;;6.20;99.90;;;;;;5211215;28;20445;-54
2022/11/06 03:24:02;;;;;;;9.43;6.20;;;6.10;99.90;;;;;;5239382;28;20519;-51
2022/11/06 03:26:37;;;;;;;13.40;7.60;;;6.00;99.90;;;;;;5240337;28;20441;-51
2022/11/06 03:29:21;;;;;;;13.90;6.57;;;6.00;99.90;;;;;;5241316;28;20810;-53
2022/11/06 03:31:57;;;;;;;16.70;7.10;;;5.90;99.90;;;;;;5239359;28;20475;-52
2022/11/06 03:34:35;;;;;;;11.67;6.57;;;5.80;99.90;;;;;;5237206;28;21467;-53
2022/11/06 03:37:12;;;;;;;9.77;6.97;;;5.90;99.90;;;;;;5239043;28;20623;-51
2022/11/06 03:39:48;;;;;;;22.63;7.83;;;5.90;99.90;;;;;;5233104;28;20449;-52
2022/11/06 03:42:24;;;;;;;11.57;7.17;;;5.90;99.90;;;;;;5240609;28;20441;-51
2022/11/06 03:45:02;;;;;;;15.80;6.87;;;5.70;99.90;;;;;;5244735;28;20735;-51
2022/11/06 03:47:37;;;;;;;12.20;5.90;;;5.70;99.90;;;;;;5246053;28;20464;-51
2022/11/06 03:50:41;;;;;;;10.07;7.30;;;5.60;99.90;;;;;;5246976;28;20452;-52
2022/11/06 03:53:19;;;;;;;16.87;8.00;;;5.60;99.90;;;;;;5233864;28;20869;-52
2022/11/06 03:55:59;;;;;;;15.83;8.20;;;5.80;99.90;;;;;;5240301;28;20435;-53
2022/11/06 03:58:34;;;;;;;14.53;6.57;;;5.70;99.90;;;;;;5237932;28;20472;-53
2022/11/06 04:01:07;;;;;;;18.37;7.33;;;6.00;99.90;;;;;;5247027;28;20443;-52
2022/11/06 04:03:47;;;;;;;13.53;5.73;;;5.90;99.90;;;;;;5248645;28;20796;-52
2022/11/06 04:06:39;;;;;;;9.50;6.83;;;5.70;99.90;;;;;;5249169;28;20438;-53
2022/11/06 04:14:57;;;;;;;6.40;5.80;;;5.60;99.90;;;;;;5240296;28;20477;-48
2022/11/06 04:17:29;;;;;;;17.93;7.83;;;5.40;99.90;;;;;;5222942;28;20432;-48
2022/11/06 04:20:07;;;;;;;13.93;7.40;;;5.50;99.90;;;;;;5233657;28;20478;-48
2022/11/06 04:23:03;;;;;;;8.20;6.13;;;5.50;99.90;;;;;;5230079;28;20506;-49
2022/11/06 04:28:58;;;;;;;7.20;5.43;;;5.50;99.90;;;;;;5252515;28;20457;-50
2022/11/06 04:31:42;;;;;;;10.23;6.57;;;5.40;99.90;;;;;;5225224;28;20991;-48
2022/11/06 04:34:30;;;;;;;15.03;6.80;;;5.30;99.90;;;;;;5220149;28;20530;-49
2022/11/06 04:37:44;;;;;;;15.57;7.40;;;5.30;99.90;;;;;;5230102;28;20436;-48
2022/11/06 04:40:31;;;;;;;7.87;6.33;;;5.40;99.90;;;;;;5225309;28;20474;-50
2022/11/06 04:43:12;;;;;;;10.60;6.90;;;5.50;99.90;;;;;;5233600;28;20447;-47
2022/11/06 04:45:48;;;;;;;8.37;6.60;;;5.50;99.90;;;;;;5232811;28;20453;-49
2022/11/06 04:48:21;;;;;;;18.53;6.50;;;5.70;99.90;;;;;;5226821;28;20446;-48
2022/11/06 04:50:59;;;;;;;9.97;7.07;;;5.60;99.90;;;;;;5226332;28;20476;-48
2022/11/06 04:53:32;;;;;;;12.60;6.27;;;5.50;99.90;;;;;;5232913;28;20439;-49
2022/11/06 04:56:18;;;;;;;9.50;6.83;;;5.30;99.90;;;;;;5232140;28;20912;-48
2022/11/06 04:58:52;;;;;;;14.83;8.60;;;5.30;99.90;;;;;;5242869;28;20861;-48
2022/11/06 05:01:31;;;;;;;23.03;7.07;;;5.30;99.90;;;;;;5210892;28;20443;-48
2022/11/06 05:04:05;;;;;;;16.40;7.70;;;5.20;99.90;;;;;;5246721;28;20435;-48
2022/11/06 05:06:36;;;;;;;11.63;6.67;;;5.30;99.90;;;;;;5225499;28;20530;-48
2022/11/06 05:09:08;;;;;;;17.70;8.20;;;5.20;99.90;;;;;;5222162;28;21139;-50
2022/11/06 05:11:53;;;;;;;14.63;6.93;;;5.10;99.90;;;;;;5242708;28;20463;-49
2022/11/06 05:14:27;;;;;;;18.50;6.93;;;5.10;99.90;;;;;;5246599;28;20435;-47
2022/11/06 05:17:01;;;;;;;9.00;7.27;;;5.10;99.90;;;;;;5237274;28;20428;-48
2022/11/06 05:19:32;;;;;;;11.40;7.40;;;5.00;99.90;;;;;;5226038;28;20446;-49
2022/11/06 05:24:52;;;;;;;17.00;7.47;;;4.90;99.90;;;;;;5247351;28;20434;-49
2022/11/06 05:27:26;;;;;;;9.27;7.27;;;4.90;99.90;;;;;;5228073;28;20439;-49
2022/11/06 05:29:57;;;;;;;10.50;6.33;;;5.00;99.90;;;;;;5247259;28;20521;-47
2022/11/06 05:32:29;;;;;;;11.10;6.93;;;5.10;99.90;;;;;;5236271;28;20439;-48
2022/11/06 05:35:00;;;;;;;14.03;7.43;;;5.10;99.90;;;;;;5234946;28;20439;-48
2022/11/06 05:37:31;;;;;;;16.10;7.33;;;5.20;99.90;;;;;;5231640;28;20426;-48
2022/11/06 05:40:03;;;;;;;10.80;7.00;;;5.30;99.90;;;;;;5237122;28;20532;-49
2022/11/06 05:42:42;;;;;;;11.30;7.30;;;5.20;99.90;;;;;;5227306;28;20457;-50
2022/11/06 05:45:13;;;;;;;12.00;7.20;;;5.10;99.90;;;;;;5249967;28;20458;-49
2022/11/06 05:47:47;;;;;;;15.47;6.87;;;5.10;99.90;;;;;;5232350;28;20442;-48
2022/11/06 05:50:18;;;;;;;10.10;6.97;;;5.00;99.90;;;;;;5248648;28;20489;-49
2022/11/06 05:52:49;;;;;;;11.73;7.53;;;5.10;99.90;;;;;;5221419;28;20941;-49
2022/11/06 05:55:20;;;;;;;6.30;5.80;;;4.90;99.90;;;;;;5214096;28;20443;-50
2022/11/06 05:57:51;;;;;;;12.70;7.30;;;4.90;99.90;;;;;;5212203;28;21000;-49
2022/11/06 06:00:22;;;;;;;16.40;6.93;;;4.80;99.90;;;;;;5230544;28;20210;-48
2022/11/06 06:02:53;;;;;;;19.10;7.33;;;4.80;99.90;;;;;;5222315;28;20454;-49
2022/11/06 06:05:24;;;;;;;16.30;8.13;;;4.70;99.90;;;;;;5238713;28;20436;-49
2022/11/06 06:08:07;;;;;;;12.70;7.30;;;4.80;99.90;;;;;;5217528;28;20197;-48
2022/11/06 06:10:45;;;;;;;8.87;6.63;;;4.90;99.90;;;;;;5231869;28;20243;-50
2022/11/06 06:13:19;;;;;;;9.07;6.50;;;4.80;99.90;;;;;;5244067;28;20438;-48
2022/11/06 06:15:49;;;;;;;11.57;7.40;;;4.90;99.90;;;;;;5228824;28;20515;-49
2022/11/06 06:18:20;;;;;;;10.20;7.17;;;4.90;99.90;;;;;;5210072;28;20912;-51
2022/11/06 06:20:55;;;;;;;16.80;7.57;;;4.70;99.90;;;;;;5230076;28;20354;-51
2022/11/06 06:23:27;;;;;;;17.90;7.40;;;4.70;99.90;;;;;;5243364;28;20188;-48
2022/11/06 06:25:58;;;;;;;19.13;8.23;;;4.90;99.90;;;;;;5235969;28;20427;-49
2022/11/06 06:28:29;;;;;;;9.60;6.70;;;4.80;99.90;;;;;;5231629;28;20450;-48
2022/11/06 06:31:04;;;;;;;16.63;7.60;;;4.90;99.90;;;;;;5238031;28;20459;-48
2022/11/06 06:33:47;;;;;;;9.23;7.57;;;4.80;99.90;;;;;;5234473;28;20525;-50
2022/11/06 06:36:18;;;;;;;10.20;7.63;;;4.90;99.90;;;;;;5217454;28;20567;-49
2022/11/06 06:38:50;;;;;;;11.30;7.93;;;5.00;99.90;;;;;;5234680;28;20537;-47
2022/11/06 06:41:21;;;;;;;14.87;8.60;;;5.10;99.90;;;;;;5224472;28;20514;-48
2022/11/06 06:43:52;;;;;;;12.97;8.10;;;5.20;99.90;;;;;;5232694;28;20450;-50
2022/11/06 06:46:41;;;;;;;9.97;6.73;;;5.40;99.90;;;;;;5229771;28;20444;-49
2022/11/06 06:49:12;;;;;;;14.13;7.53;;;5.40;99.90;;;;;;5232762;28;20458;-49
2022/11/06 06:51:46;;;;;;;16.30;7.20;;;5.60;99.90;;;;;;5241741;28;20821;-50
2022/11/06 06:54:20;;;;;;;15.20;6.50;;;5.90;99.90;;;;;;5240267;28;20523;-49
2022/11/06 06:56:54;;;;;;;12.97;7.60;;;6.10;99.90;;;;;;5224583;28;20535;-50
2022/11/06 06:59:28;;;;;;;15.83;8.07;;;6.00;99.90;;;;;;5222250;28;20460;-50
2022/11/06 07:02:14;;;;;;;12.00;6.43;;;5.80;99.90;;;;;;5244573;28;20431;-50
2022/11/06 07:04:46;;;;;;;11.67;6.90;;;5.70;99.90;;;;;;5233700;28;20452;-50
2022/11/06 07:07:17;;;;;;;13.47;7.33;;;5.60;99.90;;;;;;5231211;28;20550;-50
2022/11/06 07:09:54;;;;;;;13.77;6.83;;;5.60;99.90;;;;;;5240114;28;20471;-50
2022/11/06 07:12:29;;;;;;;8.77;7.13;;;5.60;99.90;;;;;;5241592;28;20484;-51
2022/11/06 07:14:59;;;;;;;8.57;6.60;;;5.60;99.90;;;;;;5214188;28;20439;-49
2022/11/06 07:17:30;;;;;;;11.40;7.90;;;5.60;99.90;;;;;;5228744;28;20558;-49
2022/11/06 07:20:02;;;;;;;12.10;7.80;;;5.70;99.90;;;;;;5220309;28;20227;-48
2022/11/06 07:22:33;;;;;;;11.13;7.67;;;5.80;99.90;;;;;;5248611;28;20193;-49
2022/11/06 07:25:08;;;;;;;11.97;6.93;;;6.00;99.90;;;;;;5234085;28;20454;-49
2022/11/06 07:28:19;;;;;;;8.30;6.97;;;6.10;99.90;;;;;;5243789;28;20442;-51
2022/11/06 07:31:11;;;;;;;;;;;;;;;;;;;;;
2022/11/06 07:34:25;;;;;;;12.73;7.30;;;6.20;99.90;;;;;;5231315;28;20853;-49
2022/11/06 07:36:53;;;;;;;7.90;7.10;;;6.30;99.90;;;;;;5244771;28;20432;-50
2022/11/06 07:39:28;;;;;;;10.90;7.10;;;6.30;99.90;;;;;;5248372;28;20487;-50
2022/11/06 07:42:12;;;;;;;8.67;7.10;;;6.30;99.90;;;;;;5231385;28;20471;-50
2022/11/06 07:44:53;;;;;;;12.30;7.60;;;6.40;99.90;;;;;;5232234;28;20729;-50
2022/11/06 07:47:24;;;;;;;11.03;7.10;;;6.50;99.90;;;;;;5241087;28;20527;-52
2022/11/06 07:49:58;;;;;;;11.33;7.03;;;6.70;99.90;;;;;;5250664;28;20479;-49
2022/11/06 07:52:32;;;;;;;16.60;7.80;;;6.60;99.90;;;;;;5246252;28;20870;-49
2022/11/06 07:55:16;;;;;;;13.27;7.47;;;6.50;99.90;;;;;;5241930;28;20432;-50
2022/11/06 07:57:47;;;;;;;8.00;6.17;;;6.50;99.90;;;;;;5250326;28;20448;-49
2022/11/06 08:00:19;;;;;;;10.63;8.00;;;6.60;99.90;;;;;;5232365;28;20448;-50
2022/11/06 08:02:52;;;;;;;10.30;7.57;;;6.50;99.90;;;;;;5249185;28;20529;-50
2022/11/06 08:05:23;;;;;;;21.60;9.80;;;6.60;99.90;;;;;;5212925;28;20484;-51
2022/11/06 08:07:57;;;;;;;36.60;18.20;;;6.50;99.90;;;;;;5240349;28;20473;-49
2022/11/06 08:10:29;;;;;;;35.60;14.57;;;6.60;99.90;;;;;;5230450;28;20541;-48
2022/11/06 08:13:01;;;;;;;29.47;15.70;;;6.70;99.90;;;;;;5232876;28;20516;-51
2022/11/06 08:15:37;;;;;;;15.70;8.00;;;6.80;99.90;;;;;;5246766;28;20454;-52
2022/11/06 08:18:09;;;;;;;13.40;8.63;;;6.90;99.90;;;;;;5250743;28;20428;-50
2022/11/06 08:20:40;;;;;;;8.90;6.90;;;6.90;99.90;;;;;;5224152;28;20450;-49
2022/11/06 08:23:15;;;;;;;11.10;8.10;;;6.90;99.90;;;;;;5220577;28;20440;-50
2022/11/06 08:25:49;;;;;;;7.83;6.90;;;7.00;99.90;;;;;;5239192;28;20443;-51
2022/11/06 08:28:21;;;;;;;10.80;7.93;;;7.30;99.90;;;;;;5234691;28;20447;-51
2022/11/06 08:30:52;;;;;;;23.20;7.60;;;7.20;99.90;;;;;;5237967;28;20836;-49
2022/11/06 08:33:23;;;;;;;10.53;7.47;;;7.30;99.90;;;;;;5242593;28;20797;-50
2022/11/06 08:35:55;;;;;;;10.40;7.37;;;7.20;99.90;;;;;;5236181;28;20997;-50
2022/11/06 08:38:28;;;;;;;17.70;8.10;;;7.20;99.90;;;;;;5241369;28;20440;-48
2022/11/06 08:41:10;;;;;;;9.93;7.50;;;7.20;99.90;;;;;;5244194;28;20539;-50
2022/11/06 08:43:41;;;;;;;11.13;7.13;;;7.20;99.90;;;;;;5242666;28;20432;-51
2022/11/06 08:46:18;;;;;;;11.47;8.60;;;7.30;99.90;;;;;;5246182;28;20508;-52
2022/11/06 08:48:53;;;;;;;13.77;9.60;;;7.40;99.90;;;;;;5244961;28;21328;-49
2022/11/06 08:51:29;;;;;;;18.80;13.70;;;7.50;99.90;;;;;;5239077;28;20472;-50
2022/11/06 08:54:00;;;;;;;16.90;11.73;;;7.60;99.90;;;;;;5247803;28;20444;-48
2022/11/06 08:56:32;;;;;;;28.70;16.67;;;7.70;99.90;;;;;;5241701;28;20411;-50
2022/11/06 08:59:03;;;;;;;25.53;13.37;;;7.80;99.90;;;;;;5229548;28;20586;-51
2022/11/06 09:01:37;;;;;;;20.93;12.33;;;7.80;99.90;;;;;;5234915;28;20853;-50
2022/11/06 09:04:08;;;;;;;13.93;10.73;;;7.80;99.90;;;;;;5213512;28;20452;-51
2022/11/06 09:06:42;;;;;;;14.50;10.40;;;8.00;99.90;;;;;;5235702;28;20545;-54
2022/11/06 09:09:13;;;;;;;14.83;8.20;;;8.00;99.90;;;;;;5220179;28;20827;-51
2022/11/06 09:11:44;;;;;;;14.50;9.93;;;8.10;99.90;;;;;;5234843;28;20472;-50
2022/11/06 09:14:15;;;;;;;25.13;12.93;;;8.10;99.90;;;;;;5233469;28;20436;-50
2022/11/06 09:16:49;;;;;;;23.17;11.30;;;8.10;99.90;;;;;;5231810;28;20439;-49
2022/11/06 09:19:20;;;;;;;20.67;11.80;;;8.10;99.90;;;;;;5223002;28;20923;-50
2022/11/06 09:21:51;;;;;;;20.30;11.87;;;8.30;99.90;;;;;;5227169;28;20956;-52
2022/11/06 09:24:22;;;;;;;16.20;9.30;;;8.40;99.90;;;;;;5240062;28;20432;-50
2022/11/06 09:26:54;;;;;;;14.50;8.33;;;8.40;99.90;;;;;;5246657;28;20823;-49
2022/11/06 09:29:25;;;;;;;12.57;8.47;;;8.50;99.90;;;;;;5228323;28;20985;-52
2022/11/06 09:31:56;;;;;;;10.37;8.10;;;8.50;99.90;;;;;;5230109;28;20548;-51
2022/11/06 09:34:27;;;;;;;20.73;11.50;;;8.60;99.90;;;;;;5211144;28;20476;-50
2022/11/06 09:37:06;;;;;;;13.50;7.90;;;8.70;99.90;;;;;;5230072;28;20437;-50
2022/11/06 09:39:40;;;;;;;16.23;9.70;;;8.90;99.90;;;;;;5244619;28;20456;-50
2022/11/06 09:42:29;;;;;;;10.37;6.77;;;8.80;99.90;;;;;;5226446;28;20440;-52
2022/11/06 09:45:22;;;;;;;16.47;9.30;;;8.80;99.90;;;;;;5226726;28;20544;-52
2022/11/06 09:48:10;;;;;;;15.57;9.10;;;8.90;99.90;;;;;;5239919;28;20535;-51
2022/11/06 09:51:11;;;;;;;12.17;7.80;;;8.90;99.90;;;;;;5233453;28;20471;-52
2022/11/06 09:53:49;;;;;;;13.23;8.10;;;9.00;99.90;;;;;;5230411;28;20933;-53
2022/11/06 09:56:32;;;;;;;9.80;6.87;;;9.20;99.90;;;;;;5234927;28;21034;-52
2022/11/06 09:59:09;;;;;;;9.03;6.60;;;9.20;99.90;;;;;;5244933;28;20448;-51
2022/11/06 10:02:01;;;;;;;15.50;6.33;;;9.30;99.90;;;;;;5242164;28;20436;-53
2022/11/06 10:04:54;;;;;;;13.23;6.10;;;9.40;99.90;;;;;;5245469;28;20444;-52
2022/11/06 10:07:35;;;;;;;12.10;5.73;;;9.40;99.90;;;;;;5223600;28;20436;-52
2022/11/06 10:10:13;;;;;;;7.33;6.10;;;9.40;99.90;;;;;;5235361;22;21012;-55
2022/11/06 10:12:58;;;;;;;17.27;6.20;;;9.60;99.90;;;;;;5196389;28;20434;-51
2022/11/06 10:15:34;;;;;;;15.23;5.23;;;9.50;99.90;;;;;;5178219;28;20426;-51
2022/11/06 10:18:38;;;;;;;6.10;5.07;;;9.60;99.90;;;;;;5206567;28;20613;-52
2022/11/06 10:21:29;;;;;;;15.17;6.07;;;9.60;99.90;;;;;;5191498;28;20485;-53
2022/11/06 10:24:10;;;;;;;15.23;6.17;;;9.70;99.90;;;;;;5198510;28;20502;-55
2022/11/06 10:26:48;;;;;;;9.90;6.13;;;9.70;99.90;;;;;;5195381;28;20446;-53
2022/11/06 10:29:30;;;;;;;6.53;4.90;;;9.70;99.90;;;;;;5184095;28;20459;-53
2022/11/06 10:32:32;;;;;;;6.37;4.90;;;9.80;99.90;;;;;;5200132;28;20833;-52
2022/11/06 10:35:29;;;;;;;9.73;4.70;;;9.80;99.90;;;;;;5187313;28;21537;-56
2022/11/06 10:38:10;;;;;;;7.80;5.20;;;9.90;99.90;;;;;;5202014;28;20442;-56
2022/11/06 10:40:43;;;;;;;9.43;5.37;;;9.90;99.90;;;;;;5203329;28;20461;-54
2022/11/06 10:43:35;;;;;;;6.23;5.03;;;10.00;99.90;;;;;;5201952;28;20506;-52
2022/11/06 10:46:08;;;;;;;6.40;5.00;;;10.00;99.90;;;;;;5183444;28;20448;-50
2022/11/06 10:48:45;;;;;;;9.83;5.30;;;10.10;99.90;;;;;;5202785;28;20457;-52
2022/11/06 10:51:57;;;;;;;7.30;4.77;;;10.20;99.90;;;;;;5180674;28;20463;-53
2022/11/06 10:54:33;;;;;;;6.43;5.83;;;10.20;99.90;;;;;;5199780;28;20930;-50
2022/11/06 10:57:13;;;;;;;5.40;4.90;;;10.20;99.90;;;;;;5185288;28;20430;-53
2022/11/06 10:59:44;;;;;;;9.10;5.63;;;10.30;99.90;;;;;;5184884;28;20445;-54
2022/11/06 11:02:36;;;;;;;6.53;4.50;;;10.30;99.90;;;;;;5186348;28;20770;-54
2022/11/06 11:05:14;;;;;;;8.80;5.23;;;10.40;99.90;;;;;;5185507;28;20215;-52
2022/11/06 11:07:47;;;;;;;6.00;5.43;;;10.40;99.90;;;;;;5202153;28;20429;-52
2022/11/06 11:10:25;;;;;;;7.50;5.67;;;10.60;99.90;;;;;;5195463;28;20469;-50
2022/11/06 11:12:59;;;;;;;7.53;4.97;;;10.60;99.90;;;;;;5201536;28;20830;-51
2022/11/06 11:15:41;;;;;;;10.10;6.40;;;10.50;99.90;;;;;;5201470;28;20788;-52
2022/11/06 11:18:12;;;;;;;4.53;4.13;;;10.50;99.90;;;;;;5197231;28;20446;-50
2022/11/06 11:20:48;;;;;;;8.77;5.27;;;10.70;99.90;;;;;;5203917;28;20494;-50
2022/11/06 11:23:21;;;;;;;6.30;4.63;;;10.70;99.90;;;;;;5181906;28;20528;-54
2022/11/06 11:25:56;;;;;;;12.63;5.83;;;10.90;99.90;;;;;;5204195;28;20438;-50
2022/11/06 11:28:30;;;;;;;4.50;4.10;;;10.90;99.90;;;;;;5198178;28;20478;-51
2022/11/06 11:31:15;;;;;;;8.27;4.97;;;10.80;99.90;;;;;;5189837;28;20492;-53
2022/11/06 11:34:14;;;;;;;6.50;4.60;;;10.80;99.90;;;;;;5194719;28;20447;-51
2022/11/06 11:37:07;;;;;;;7.70;4.70;;;10.90;99.90;;;;;;5177903;28;20592;-51
2022/11/06 11:39:43;;;;;;;19.40;6.03;;;10.80;99.90;;;;;;5195063;28;20458;-52
2022/11/06 11:42:22;;;;;;;7.83;4.47;;;11.00;99.90;;;;;;5184841;28;20445;-52
2022/11/06 11:45:08;;;;;;;5.30;4.80;;;11.00;99.90;;;;;;5193534;28;20450;-52
2022/11/06 11:47:47;;;;;;;4.87;4.47;;;11.00;99.90;;;;;;5192188;28;20426;-52
2022/11/06 11:50:25;;;;;;;5.63;4.27;;;11.10;99.90;;;;;;5183144;28;20461;-51
2022/11/06 11:53:09;;;;;;;5.07;4.50;;;11.00;99.90;;;;;;5175020;28;20468;-52
2022/11/06 11:55:44;;;;;;;14.40;8.93;;;11.10;99.90;;;;;;5197845;28;20834;-50
2022/11/06 11:58:25;;;;;;;12.27;6.77;;;11.10;99.90;;;;;;5188760;28;20794;-48
2022/11/06 12:01:02;;;;;;;18.23;9.73;;;11.10;99.90;;;;;;5173472;28;20454;-50
2022/11/06 12:03:48;;;;;;;7.80;5.10;;;11.10;99.90;;;;;;5179421;28;21006;-51
2022/11/06 12:06:19;;;;;;;5.30;4.13;;;11.00;99.90;;;;;;5174362;28;20809;-50
2022/11/06 12:08:52;;;;;;;8.13;3.87;;;11.00;99.90;;;;;;5186665;28;20499;-51
2022/11/06 12:11:26;;;;;;;5.13;4.40;;;10.90;99.90;;;;;;5178894;28;20252;-50
2022/11/06 12:14:31;;;;;;;5.87;4.43;;;11.00;99.90;;;;;;5196394;28;20541;-51
2022/11/06 12:17:21;;;;;;;10.27;5.13;;;11.10;99.90;;;;;;5163091;28;20445;-53
2022/11/06 12:19:57;;;;;;;4.43;4.13;;;11.30;99.90;;;;;;5185179;28;20461;-49
2022/11/06 12:22:35;;;;;;;6.53;4.00;;;11.30;99.90;;;;;;5203039;28;20442;-50
2022/11/06 12:25:26;;;;;;;4.07;3.40;;;11.40;99.90;;;;;;5202662;28;20850;-57
2022/11/06 12:27:59;;;;;;;4.80;4.30;;;11.70;99.90;;;;;;5200101;28;20533;-51
2022/11/06 12:30:32;;;;;;;7.13;3.60;;;12.00;99.90;;;;;;5199023;28;20467;-52
2022/11/06 12:33:25;;;;;;;6.70;3.70;;;12.10;99.90;;;;;;5201815;28;20493;-50
2022/11/06 12:36:06;;;;;;;7.30;4.60;;;12.30;99.90;;;;;;5177494;28;20446;-51
2022/11/06 12:38:37;;;;;;;7.10;4.10;;;12.20;99.90;;;;;;5197312;28;20488;-50
2022/11/06 12:41:31;;;;;;;6.27;3.40;;;12.00;99.90;;;;;;5198412;28;20865;-50
2022/11/06 12:44:02;;;;;;;13.47;4.80;;;11.70;99.90;;;;;;5197379;28;20191;-53
2022/11/06 12:46:41;;;;;;;7.03;3.90;;;11.60;99.90;;;;;;5197110;28;20433;-49
2022/11/06 12:49:43;;;;;;;4.30;3.87;;;11.50;99.90;;;;;;5180896;28;20551;-49
2022/11/06 12:52:41;;;;;;;6.87;4.20;;;11.50;99.90;;;;;;5194362;28;20465;-52
2022/11/06 12:55:28;;;;;;;9.00;3.47;;;11.30;99.90;;;;;;5185736;28;20491;-51
2022/11/06 12:58:13;;;;;;;3.83;3.43;;;11.20;99.90;;;;;;5205029;28;20446;-51
2022/11/06 13:01:02;;;;;;;6.90;3.30;;;11.30;99.90;;;;;;5201114;28;21035;-51
2022/11/06 13:04:00;;;;;;;4.83;4.20;;;11.20;99.90;;;;;;5200950;28;20442;-49
2022/11/06 13:06:36;;;;;;;6.03;3.43;;;11.40;99.90;;;;;;5182798;28;21012;-50
2022/11/06 13:09:16;;;;;;;4.43;2.80;;;11.30;99.90;;;;;;5191954;28;20440;-50
2022/11/06 13:12:05;;;;;;;3.73;3.43;;;11.40;99.90;;;;;;5199914;28;21064;-51
2022/11/06 13:14:49;;;;;;;3.53;3.33;;;11.20;99.90;;;;;;5183447;28;20483;-51
2022/11/06 13:17:46;;;;;;;3.57;3.20;;;11.20;99.90;;;;;;5183434;28;20954;-50
2022/11/06 13:20:52;;;;;;;4.07;3.60;;;11.10;99.90;;;;;;5165618;28;20782;-51
2022/11/06 13:23:41;;;;;;;3.70;3.30;;;11.10;99.90;;;;;;5174247;28;20439;-48
2022/11/06 13:26:26;;;;;;;6.90;2.60;;;11.20;99.90;;;;;;5176529;28;20459;-50
2022/11/06 13:29:02;;;;;;;7.60;3.40;;;11.30;99.90;;;;;;5181215;28;20495;-50
2022/11/06 13:31:47;;;;;;;5.60;4.23;;;11.30;99.90;;;;;;5201154;28;20469;-51
2022/11/06 13:34:27;;;;;;;4.63;2.90;;;11.20;99.90;;;;;;5186321;28;20438;-50
2022/11/06 13:36:59;;;;;;;5.17;3.60;;;11.10;99.90;;;;;;5195427;28;20459;-53
2022/11/06 13:39:58;;;;;;;3.80;3.50;;;11.20;99.90;;;;;;5202745;28;20543;-48
2022/11/06 13:42:34;;;;;;;9.27;3.57;;;11.10;99.90;;;;;;5202983;28;20418;-52
2022/11/06 13:45:13;;;;;;;10.27;4.43;;;11.10;99.90;;;;;;5189593;28;20934;-50
2022/11/06 13:48:28;;;;;;;11.60;4.17;;;11.20;99.90;;;;;;5179640;28;20489;-50
2022/11/06 13:51:21;;;;;;;6.23;3.27;;;11.10;99.90;;;;;;5184346;28;20547;-51
2022/11/06 13:54:03;;;;;;;4.00;3.40;;;11.10;99.90;;;;;;5204748;28;20522;-50
2022/11/06 13:56:34;;;;;;;10.00;5.13;;;11.10;99.90;;;;;;5178443;28;20469;-51
2022/11/06 13:59:30;;;;;;;7.53;4.40;;;11.10;99.90;;;;;;5185992;28;20878;-51